Time;durP1;ratioP1;P1;durP2;ratioP2;P2;SDS_P1;SDS_P2;PMS_P1;PMS_P2;Temp;Humidity;BMP_temperature;BMP_pressure;BME280_temperature;BME280_humidity;BME280_pressure;Samples;Min_cycle;Max_cycle;Signal;HPM_P1;HPM_P2
2022/08/10 00:00:20;;;;;;;2.67;2.00;;;;;;;20.07;59.05;102407.63;3588672;40;20405;-63
2022/08/10 00:03:06;;;;;;;3.47;2.03;;;;;;;20.01;59.10;102401.75;3591938;40;20456;-64
2022/08/10 00:05:32;;;;;;;2.75;2.03;;;;;;;19.87;59.57;102389.19;3588779;39;20115;-64
2022/08/10 00:07:58;;;;;;;2.45;2.00;;;;;;;19.90;59.88;102410.78;3586148;40;20056;-64
2022/08/10 00:10:25;;;;;;;2.25;2.10;;;;;;;19.86;59.87;102410.16;3588265;39;20117;-63
2022/08/10 00:12:51;;;;;;;3.97;2.17;;;;;;;19.64;60.18;102374.56;3585723;39;20067;-64
2022/08/10 00:15:20;;;;;;;2.30;2.20;;;;;;;19.78;59.98;102403.53;3588718;39;20491;-63
2022/08/10 00:17:46;;;;;;;3.00;2.30;;;;;;;19.72;60.62;102402.13;3591078;40;20052;-63
2022/08/10 00:20:13;;;;;;;2.10;1.90;;;;;;;19.74;60.92;102407.50;3593389;39;20047;-64
2022/08/10 00:22:39;;;;;;;4.28;2.35;;;;;;;19.71;60.54;102401.25;3588895;39;20385;-64
2022/08/10 00:25:06;;;;;;;2.10;2.00;;;;;;;19.70;60.22;102394.06;3592064;39;20055;-64
2022/08/10 00:27:33;;;;;;;2.38;2.10;;;;;;;19.68;60.51;102393.31;3587415;40;20349;-64
2022/08/10 00:29:58;;;;;;;2.35;2.13;;;;;;;19.65;60.93;102396.25;3593080;40;20061;-64
2022/08/10 00:32:24;;;;;;;2.25;2.08;;;;;;;19.62;60.73;102396.47;3590114;39;20051;-64
2022/08/10 00:34:50;;;;;;;3.17;2.10;;;;;;;19.59;60.88;102383.06;3591824;39;20345;-64
2022/08/10 00:37:18;;;;;;;3.05;1.90;;;;;;;19.56;60.15;102380.56;3589024;39;20046;-64
2022/08/10 00:39:45;;;;;;;5.47;2.45;;;;;;;19.57;61.04;102387.78;3585081;39;20059;-64
2022/08/10 00:42:14;;;;;;;4.90;2.05;;;;;;;19.55;61.30;102381.56;3588431;40;20091;-63
2022/08/10 00:44:44;;;;;;;4.95;2.22;;;;;;;19.56;61.16;102379.69;3593007;39;20063;-64
2022/08/10 00:47:12;;;;;;;4.03;2.30;;;;;;;19.54;60.66;102384.41;3594397;40;20321;-63
2022/08/10 00:49:39;;;;;;;6.90;2.35;;;;;;;19.43;60.94;102369.69;3590735;40;20055;-64
2022/08/10 00:52:06;;;;;;;2.88;2.03;;;;;;;19.13;60.91;102312.88;3591289;40;20047;-64
2022/08/10 00:54:36;;;;;;;2.00;1.90;;;;;;;19.47;61.54;102382.13;3591220;39;20312;-64
2022/08/10 00:57:04;;;;;;;4.10;2.10;;;;;;;19.46;61.52;102382.25;3592260;40;20064;-64
2022/08/10 00:59:31;;;;;;;7.45;2.22;;;;;;;19.40;61.54;102382.69;3589786;40;20072;-64
2022/08/10 01:01:58;;;;;;;3.33;2.38;;;;;;;19.37;61.99;102380.19;3588873;40;20100;-64
2022/08/10 01:04:23;;;;;;;4.47;2.40;;;;;;;19.34;61.10;102381.28;3587723;40;20040;-64
2022/08/10 01:07:26;;;;;;;5.07;2.53;;;;;;;19.34;60.95;102385.88;3587115;40;20267;-64
2022/08/10 01:10:29;;;;;;;3.05;1.85;;;;;;;19.27;62.20;102385.47;3586271;40;20055;-63
2022/08/10 01:13:25;;;;;;;4.07;2.35;;;;;;;19.24;62.16;102377.50;3590971;40;20901;-64
2022/08/10 01:16:03;;;;;;;4.13;2.45;;;;;;;19.18;62.30;102376.09;3588737;40;20060;-64
2022/08/10 01:18:57;;;;;;;2.22;2.13;;;;;;;19.17;62.28;102376.22;3588967;40;20171;-64
2022/08/10 01:22:02;;;;;;;2.45;2.25;;;;;;;19.10;62.15;102366.75;3587207;40;20048;-64
2022/08/10 01:25:20;;;;;;;3.50;1.92;;;;;;;19.06;62.36;102371.56;3584252;40;20052;-64
2022/08/10 01:28:21;;;;;;;2.55;2.35;;;;;;;19.06;62.72;102371.56;3591496;40;20052;-64
2022/08/10 01:30:54;;;;;;;3.13;2.40;;;;;;;18.99;62.86;102368.41;3588007;40;20067;-64
2022/08/10 01:33:53;;;;;;;2.25;2.00;;;;;;;18.99;62.61;102367.53;3586218;39;20118;-64
2022/08/10 01:36:40;;;;;;;2.60;2.40;;;;;;;18.94;63.41;102370.59;3586655;40;20040;-64
2022/08/10 01:39:18;;;;;;;3.00;2.20;;;;;;;18.92;63.48;102363.50;3590578;39;20100;-63
2022/08/10 01:41:53;;;;;;;3.03;2.75;;;;;;;18.59;63.08;102313.19;3589219;39;20044;-64
2022/08/10 01:44:44;;;;;;;3.53;2.45;;;;;;;18.88;63.54;102367.44;3589930;39;20056;-64
2022/08/10 01:50:18;;;;;;;2.95;2.65;;;;;;;18.62;63.48;102328.44;3587006;40;20046;-64
2022/08/10 01:52:51;;;;;;;2.65;2.45;;;;;;;17.64;63.29;102172.97;3586703;40;20041;-64
2022/08/10 01:55:20;;;;;;;3.95;2.65;;;;;;;18.77;63.54;102363.66;3585119;39;20299;-64
2022/08/10 01:57:49;;;;;;;5.28;2.83;;;;;;;18.78;63.41;102368.13;3586213;40;20048;-64
2022/08/10 02:00:18;;;;;;;3.78;2.70;;;;;;;18.74;63.32;102358.44;3583384;40;20072;-64
2022/08/10 02:02:47;;;;;;;2.67;2.47;;;;;;;18.76;63.33;102369.19;3583812;40;20404;-64
2022/08/10 02:05:16;;;;;;;3.58;2.58;;;;;;;18.71;63.92;102366.78;3584304;39;20047;-63
2022/08/10 02:07:47;;;;;;;3.00;2.70;;;;;;;18.56;63.97;102351.53;3586796;40;20048;-64
2022/08/10 02:10:19;;;;;;;4.30;2.50;;;;;;;18.66;63.53;102370.81;3587382;39;20060;-64
2022/08/10 02:12:48;;;;;;;3.88;2.80;;;;;;;18.63;64.72;102366.44;3586556;39;20055;-64
2022/08/10 02:15:20;;;;;;;3.22;2.92;;;;;;;18.62;63.94;102367.44;3585953;39;20095;-64
2022/08/10 02:18:00;;;;;;;3.33;3.00;;;;;;;18.58;64.78;102368.63;3587435;40;20055;-64
2022/08/10 02:20:35;;;;;;;2.78;2.58;;;;;;;18.58;64.83;102365.91;3585706;40;20049;-64
2022/08/10 02:23:14;;;;;;;4.45;3.13;;;;;;;18.59;64.76;102366.78;3586043;40;20051;-64
2022/08/10 02:25:44;;;;;;;3.70;2.88;;;;;;;18.56;64.73;102365.16;3587913;40;20056;-64
2022/08/10 02:28:19;;;;;;;3.35;3.05;;;;;;;18.56;64.07;102357.84;3586390;40;20050;-64
2022/08/10 02:30:49;;;;;;;3.28;2.97;;;;;;;18.54;64.32;102354.34;3583481;40;20068;-64
2022/08/10 02:33:19;;;;;;;4.18;3.22;;;;;;;18.49;64.60;102348.38;3583355;40;20136;-64
2022/08/10 02:35:49;;;;;;;5.95;2.97;;;;;;;18.46;64.81;102356.78;3583785;40;20143;-64
2022/08/10 02:38:24;;;;;;;4.43;2.85;;;;;;;18.37;65.13;102348.38;3585329;40;20067;-64
2022/08/10 02:41:02;;;;;;;3.42;3.08;;;;;;;18.40;65.21;102357.19;3586524;40;20060;-64
2022/08/10 02:43:37;;;;;;;3.15;2.88;;;;;;;18.38;65.46;102352.84;3586424;40;20062;-64
2022/08/10 02:46:18;;;;;;;4.13;3.40;;;;;;;18.33;64.78;102351.31;3585189;39;20056;-64
2022/08/10 02:48:53;;;;;;;2.83;2.63;;;;;;;18.37;64.98;102359.28;3586407;40;20064;-64
2022/08/10 02:51:38;;;;;;;3.20;2.85;;;;;;;18.36;64.83;102357.50;3585663;39;20070;-64
2022/08/10 02:54:16;;;;;;;3.25;2.95;;;;;;;18.13;65.46;102332.78;3587501;40;20052;-63
2022/08/10 02:57:15;;;;;;;4.03;3.25;;;;;;;18.20;65.72;102355.84;3585260;40;20052;-64
2022/08/10 02:59:51;;;;;;;6.80;3.40;;;;;;;18.16;66.08;102346.16;3580512;40;20065;-64
2022/08/10 03:02:29;;;;;;;3.67;3.38;;;;;;;18.06;66.05;102328.75;3585264;40;20458;-63
2022/08/10 03:05:04;;;;;;;3.47;3.22;;;;;;;18.10;66.03;102346.59;3586324;40;20086;-64
2022/08/10 03:07:42;;;;;;;4.25;3.40;;;;;;;18.06;65.60;102343.22;3584162;40;20342;-63
2022/08/10 03:10:15;;;;;;;6.03;3.88;;;;;;;18.02;66.40;102344.41;3585582;39;20057;-63
2022/08/10 03:12:44;;;;;;;7.93;3.50;;;;;;;17.90;66.65;102330.78;3584761;40;20088;-63
2022/08/10 03:15:14;;;;;;;5.03;3.78;;;;;;;17.91;66.71;102332.53;3584921;39;20407;-64
2022/08/10 03:17:44;;;;;;;3.67;3.38;;;;;;;17.90;67.11;102333.50;3587000;40;20060;-63
2022/08/10 03:20:13;;;;;;;4.30;3.45;;;;;;;17.89;67.03;102329.03;3586521;39;20119;-63
2022/08/10 03:22:43;;;;;;;6.50;3.53;;;;;;;17.89;66.72;102331.75;3586313;40;20048;-63
2022/08/10 03:25:12;;;;;;;4.35;3.80;;;;;;;17.72;67.16;102303.81;3585366;39;20109;-63
2022/08/10 03:27:43;;;;;;;5.85;3.95;;;;;;;17.78;66.89;102332.50;3585203;40;20059;-63
2022/08/10 03:30:10;;;;;;;4.93;4.05;;;;;;;17.74;67.61;102331.81;3585486;40;20052;-63
2022/08/10 03:32:39;;;;;;;5.90;3.75;;;;;;;17.67;67.31;102326.91;3587141;40;20088;-63
2022/08/10 03:35:08;;;;;;;4.90;3.88;;;;;;;17.63;67.56;102328.91;3588290;39;20475;-64
2022/08/10 03:37:35;;;;;;;5.53;4.30;;;;;;;17.55;68.10;102309.56;3587149;40;20075;-63
2022/08/10 03:40:00;;;;;;;4.40;3.83;;;;;;;17.61;67.83;102326.31;3586753;40;20058;-63
2022/08/10 03:42:28;;;;;;;7.68;4.10;;;;;;;17.58;68.13;102333.81;3586493;40;20052;-63
2022/08/10 03:44:57;;;;;;;6.57;4.00;;;;;;;17.50;68.07;102325.28;3585169;40;20054;-63
2022/08/10 03:47:28;;;;;;;4.45;3.80;;;;;;;17.52;68.40;102336.94;3587388;40;20058;-64
2022/08/10 03:49:57;;;;;;;6.43;4.30;;;;;;;17.51;68.46;102335.22;3588111;40;20426;-63
2022/08/10 03:52:25;;;;;;;6.85;3.90;;;;;;;17.49;68.11;102337.16;3587235;40;20057;-63
2022/08/10 03:54:51;;;;;;;7.93;4.60;;;;;;;17.45;68.55;102338.34;3584700;40;20386;-63
2022/08/10 03:57:19;;;;;;;7.68;4.72;;;;;;;17.42;68.27;102342.13;3585410;40;20064;-63
2022/08/10 03:59:46;;;;;;;5.22;4.72;;;;;;;17.24;68.87;102313.44;3586104;40;20044;-63
2022/08/10 04:02:13;;;;;;;6.43;4.53;;;;;;;17.35;68.51;102347.09;3587148;39;20047;-64
2022/08/10 04:04:39;;;;;;;9.30;4.72;;;;;;;17.33;69.19;102338.16;3587167;40;20080;-63
2022/08/10 04:07:05;;;;;;;6.90;4.72;;;;;;;17.31;68.88;102340.09;3584138;40;20121;-64
2022/08/10 04:09:34;;;;;;;5.15;4.40;;;;;;;17.31;69.16;102340.09;3587363;40;20049;-64
2022/08/10 04:12:02;;;;;;;5.88;4.78;;;;;;;17.32;69.68;102347.31;3586642;40;20122;-64
2022/08/10 04:14:27;;;;;;;7.13;4.72;;;;;;;17.30;68.97;102340.22;3587253;40;20068;-63
2022/08/10 04:16:53;;;;;;;6.88;4.55;;;;;;;17.10;69.09;102309.81;3587952;40;20263;-63
2022/08/10 04:19:21;;;;;;;5.25;4.47;;;;;;;17.24;68.85;102344.22;3587547;39;20098;-63
2022/08/10 04:22:13;;;;;;;6.50;4.85;;;;;;;17.21;69.59;102347.13;3586303;40;20052;-63
2022/08/10 04:24:45;;;;;;;5.22;4.47;;;;;;;17.17;69.30;102345.59;3584471;40;20126;-63
2022/08/10 04:27:12;;;;;;;7.65;5.38;;;;;;;17.15;69.83;102344.81;3586814;39;20048;-63
2022/08/10 04:29:38;;;;;;;6.68;5.35;;;;;;;17.10;69.67;102338.81;3586607;40;20087;-63
2022/08/10 04:32:07;;;;;;;7.18;5.57;;;;;;;17.18;69.42;102345.47;3585610;40;20413;-63
2022/08/10 04:34:36;;;;;;;6.15;4.95;;;;;;;17.17;69.53;102342.88;3587072;40;20048;-63
2022/08/10 04:37:07;;;;;;;6.70;5.00;;;;;;;17.19;69.82;102349.09;3587287;40;20321;-63
2022/08/10 04:39:33;;;;;;;5.85;4.65;;;;;;;17.16;70.19;102346.56;3587186;40;20367;-63
2022/08/10 04:41:59;;;;;;;5.95;4.68;;;;;;;17.17;69.90;102353.75;3584538;40;20088;-63
2022/08/10 04:44:25;;;;;;;5.65;5.13;;;;;;;17.16;70.25;102350.16;3588590;40;20118;-63
2022/08/10 04:46:50;;;;;;;6.75;5.40;;;;;;;17.18;69.37;102345.47;3585488;40;20048;-64
2022/08/10 04:49:16;;;;;;;5.68;4.80;;;;;;;17.18;69.08;102347.31;3586165;40;20071;-63
2022/08/10 04:51:42;;;;;;;6.15;5.00;;;;;;;17.17;70.01;102338.31;3586807;40;20152;-64
2022/08/10 04:54:07;;;;;;;6.05;5.00;;;;;;;17.18;70.18;102339.16;3584212;40;20066;-63
2022/08/10 04:56:38;;;;;;;5.80;4.75;;;;;;;17.20;70.29;102339.97;3584479;40;20052;-63
2022/08/10 04:59:10;;;;;;;6.65;5.28;;;;;;;17.23;70.19;102339.75;3584356;40;20056;-63
2022/08/10 05:01:38;;;;;;;5.78;4.88;;;;;;;17.24;69.99;102333.34;3588836;40;20059;-63
2022/08/10 05:04:04;;;;;;;6.65;5.10;;;;;;;17.24;69.90;102336.06;3585177;40;20052;-64
2022/08/10 05:06:31;;;;;;;6.05;5.45;;;;;;;16.99;69.63;102298.75;3584470;40;20137;-63
2022/08/10 05:08:57;;;;;;;6.05;5.18;;;;;;;17.17;70.38;102349.19;3584259;40;20052;-63
2022/08/10 05:11:23;;;;;;;5.72;5.22;;;;;;;17.23;70.50;102342.47;3591644;40;20051;-63
2022/08/10 05:13:48;;;;;;;6.78;5.25;;;;;;;17.24;70.11;102336.06;3586642;40;20048;-63
2022/08/10 05:16:14;;;;;;;6.20;5.65;;;;;;;17.27;70.37;102338.56;3583577;40;20068;-63
2022/08/10 05:18:39;;;;;;;7.47;5.65;;;;;;;17.27;70.74;102337.72;3585786;40;20071;-64
2022/08/10 05:21:05;;;;;;;7.38;6.07;;;;;;;17.29;70.13;102336.63;3584833;40;20128;-64
2022/08/10 05:23:31;;;;;;;9.63;5.75;;;;;;;17.32;69.94;102333.72;3585632;40;20146;-63
2022/08/10 05:25:56;;;;;;;6.43;5.80;;;;;;;17.36;70.32;102337.97;3586509;40;20056;-63
2022/08/10 05:28:22;;;;;;;7.68;6.10;;;;;;;17.42;69.73;102346.69;3586651;40;20298;-63
2022/08/10 05:30:47;;;;;;;6.55;5.95;;;;;;;17.47;70.18;102344.53;3586815;40;20067;-63
2022/08/10 05:33:13;;;;;;;6.93;5.60;;;;;;;17.48;69.78;102349.00;3585874;39;20063;-63
2022/08/10 05:35:39;;;;;;;6.65;5.95;;;;;;;17.51;69.77;102348.81;3586731;40;20063;-64
2022/08/10 05:38:09;;;;;;;7.15;5.85;;;;;;;17.51;69.73;102348.81;3586203;39;20463;-63
2022/08/10 05:40:38;;;;;;;7.05;6.20;;;;;;;17.48;69.96;102347.16;3585768;40;20040;-63
2022/08/10 05:43:05;;;;;;;6.35;5.75;;;;;;;17.53;70.38;102352.28;3586473;39;20044;-63
2022/08/10 05:45:30;;;;;;;7.07;5.68;;;;;;;17.58;69.61;102363.72;3587060;40;20056;-64
2022/08/10 05:47:56;;;;;;;6.70;6.00;;;;;;;17.55;69.71;102342.19;3592701;39;20082;-63
2022/08/10 05:50:29;;;;;;;8.20;5.97;;;;;;;17.63;69.59;102353.41;3583971;40;20063;-63
2022/08/10 05:52:55;;;;;;;;;;;;;;;17.59;69.54;102336.41;3586124;39;20114;-63
2022/08/10 05:55:23;;;;;;;8.30;6.00;;;;;;;17.70;69.64;102362.03;3585645;40;19946;-63
2022/08/10 05:57:51;;;;;;;8.13;6.80;;;;;;;17.75;69.44;102354.44;3585411;40;20068;-63
2022/08/10 06:00:20;;;;;;;8.32;6.53;;;;;;;17.75;69.53;102347.13;3586733;40;20078;-63
2022/08/10 06:02:56;;;;;;;7.28;6.57;;;;;;;17.80;69.88;102352.31;3583405;40;20060;-63
2022/08/10 06:05:30;;;;;;;6.85;6.25;;;;;;;17.87;69.90;102348.19;3584041;39;20052;-63
2022/08/10 06:08:19;;;;;;;7.15;6.45;;;;;;;17.95;69.10;102350.38;3584744;40;20083;-63
2022/08/10 06:10:48;;;;;;;7.47;6.72;;;;;;;17.99;69.37;102354.66;3585441;40;20052;-63
2022/08/10 06:16:24;;;;;;;10.40;7.25;;;;;;;17.91;68.91;102305.31;3563720;40;20119;-63
2022/08/10 06:18:52;;;;;;;8.57;6.60;;;;;;;18.26;68.57;102355.44;3564989;40;20057;-63
2022/08/10 06:21:19;;;;;;;6.85;6.15;;;;;;;18.38;68.60;102358.28;3573843;40;20063;-64
2022/08/10 06:23:47;;;;;;;7.10;6.40;;;;;;;18.47;68.44;102357.63;3584564;40;20052;-63
2022/08/10 06:26:12;;;;;;;7.80;6.75;;;;;;;18.59;67.56;102366.78;3586144;40;20078;-63
2022/08/10 06:28:46;;;;;;;8.43;6.63;;;;;;;18.70;67.36;102355.97;3584238;40;20295;-64
2022/08/10 06:31:18;;;;;;;8.20;6.63;;;;;;;18.57;67.12;102309.69;3584923;40;20078;-64
2022/08/10 06:33:45;;;;;;;6.05;5.45;;;;;;;19.03;66.12;102366.34;3585922;40;20048;-64
2022/08/10 06:36:12;;;;;;;11.15;6.82;;;;;;;19.20;66.07;102354.19;3583976;39;20053;-64
2022/08/10 06:38:41;;;;;;;6.68;5.82;;;;;;;19.24;66.02;102321.13;3583436;40;20096;-63
2022/08/10 06:41:22;;;;;;;9.25;6.68;;;;;;;19.60;65.42;102348.44;3585039;40;20054;-63
2022/08/10 06:44:02;;;;;;;11.25;9.70;;;;;;;19.82;63.85;102343.16;3584153;40;20056;-63
2022/08/10 06:46:35;;;;;;;6.85;5.80;;;;;;;19.95;62.87;102354.00;3587550;40;20036;-63
2022/08/10 06:49:05;;;;;;;8.27;5.63;;;;;;;20.13;62.40;102352.53;3584632;39;20052;-64
2022/08/10 06:51:36;;;;;;;5.47;4.97;;;;;;;20.32;62.38;102356.56;3587845;39;20310;-63
2022/08/10 06:54:07;;;;;;;6.57;4.95;;;;;;;20.54;61.15;102348.44;3585675;40;20051;-64
2022/08/10 06:56:41;;;;;;;6.05;4.70;;;;;;;20.72;59.71;102350.69;3587196;40;20052;-64
2022/08/10 06:59:40;;;;;;;7.38;4.97;;;;;;;20.84;60.45;102355.19;3587097;40;20064;-64
2022/08/10 07:02:13;;;;;;;7.18;4.97;;;;;;;21.02;60.12;102356.38;3586621;40;20345;-64
2022/08/10 07:04:44;;;;;;;6.47;5.70;;;;;;;21.22;59.44;102356.63;3589562;40;20044;-64
2022/08/10 07:07:18;;;;;;;5.95;4.47;;;;;;;21.38;57.77;102362.59;3586521;40;20133;-63
2022/08/10 07:09:46;;;;;;;13.15;4.85;;;;;;;21.46;58.21;102362.81;3586618;40;20063;-63
2022/08/10 07:12:16;;;;;;;5.57;4.70;;;;;;;21.64;57.63;102370.50;3584986;40;20133;-63
2022/08/10 07:14:46;;;;;;;6.53;5.15;;;;;;;21.84;56.46;102363.31;3585099;40;20051;-64
2022/08/10 07:17:18;;;;;;;7.07;5.05;;;;;;;22.01;55.98;102366.34;3586526;39;20156;-63
2022/08/10 07:19:53;;;;;;;5.57;4.50;;;;;;;22.14;56.50;102368.03;3587423;40;20063;-63
2022/08/10 07:22:26;;;;;;;5.00;4.10;;;;;;;22.27;56.08;102371.47;3586987;40;20056;-64
2022/08/10 07:24:55;;;;;;;;;;;;;;;22.42;54.81;102370.16;3587020;40;20052;-64
2022/08/10 07:27:23;;;;;;;6.88;4.22;;;;;;;22.55;54.72;102369.94;3587205;40;19935;-63
2022/08/10 07:29:52;;;;;;;5.53;4.03;;;;;;;22.70;54.34;102370.41;3588782;40;20085;-64
2022/08/10 07:32:22;;;;;;;5.38;4.45;;;;;;;22.91;54.40;102376.72;3586257;40;20433;-63
2022/08/10 07:34:53;;;;;;;5.90;4.20;;;;;;;22.95;53.15;102344.44;3587801;39;20048;-64
2022/08/10 07:37:23;;;;;;;3.83;3.50;;;;;;;23.31;52.90;102370.41;3586894;40;20082;-64
2022/08/10 07:39:53;;;;;;;4.40;4.00;;;;;;;23.50;51.46;102377.84;3586013;40;20063;-63
2022/08/10 07:42:21;;;;;;;4.18;3.78;;;;;;;23.58;51.16;102369.72;3584482;40;20059;-64
2022/08/10 07:44:49;;;;;;;6.28;3.80;;;;;;;23.67;51.16;102378.13;3586429;40;20053;-63
2022/08/10 07:47:23;;;;;;;5.72;4.15;;;;;;;23.79;50.04;102369.66;3586462;40;20318;-63
2022/08/10 07:49:54;;;;;;;4.10;3.70;;;;;;;23.96;50.68;102370.81;3586835;40;20055;-63
2022/08/10 07:52:22;;;;;;;5.78;3.63;;;;;;;24.07;50.80;102370.66;3586454;40;20052;-64
2022/08/10 07:54:52;;;;;;;3.97;3.58;;;;;;;24.25;50.12;102373.53;3586492;40;20485;-64
2022/08/10 07:57:30;;;;;;;4.60;4.25;;;;;;;24.33;48.79;102365.41;3584882;40;20133;-64
2022/08/10 08:00:04;;;;;;;5.72;4.30;;;;;;;24.42;50.02;102369.19;3587174;40;20052;-64
2022/08/10 08:02:49;;;;;;;4.78;3.90;;;;;;;24.51;49.89;102361.91;3586081;40;20126;-64
2022/08/10 08:05:20;;;;;;;4.22;3.70;;;;;;;24.75;48.35;102376.03;3586102;39;20068;-65
2022/08/10 08:07:48;;;;;;;4.10;3.70;;;;;;;24.91;48.18;102380.03;3584659;40;20297;-64
2022/08/10 08:10:16;;;;;;;5.70;3.83;;;;;;;24.96;47.38;102366.69;3585375;40;20108;-64
2022/08/10 08:12:45;;;;;;;7.20;3.85;;;;;;;25.26;46.24;102381.22;3591222;40;20060;-65
2022/08/10 08:15:17;;;;;;;5.28;3.65;;;;;;;25.42;46.61;102378.66;3587874;39;20068;-64
2022/08/10 08:17:46;;;;;;;4.03;3.65;;;;;;;25.62;46.63;102369.22;3588325;39;20052;-64
2022/08/10 08:20:15;;;;;;;4.85;3.30;;;;;;;25.73;44.60;102376.41;3586218;39;20063;-64
2022/08/10 08:22:43;;;;;;;4.43;3.28;;;;;;;25.93;44.92;102383.50;3585104;40;20092;-64
2022/08/10 08:25:12;;;;;;;4.05;3.20;;;;;;;26.12;45.19;102370.59;3587043;40;20095;-65
2022/08/10 08:27:42;;;;;;;3.33;3.03;;;;;;;26.31;45.56;102375.06;3585635;40;20052;-63
2022/08/10 08:30:10;;;;;;;6.35;3.33;;;;;;;26.42;44.61;102374.81;3585643;40;20047;-64
2022/08/10 08:32:42;;;;;;;4.30;3.28;;;;;;;26.45;44.24;102349.66;3585268;40;20064;-65
2022/08/10 08:35:14;;;;;;;3.72;3.08;;;;;;;26.71;43.87;102374.50;3584819;40;20082;-65
2022/08/10 08:37:48;;;;;;;5.40;2.90;;;;;;;26.82;42.70;102367.81;3585073;40;20052;-66
2022/08/10 08:40:25;;;;;;;5.20;3.30;;;;;;;26.86;43.22;102366.44;3584041;40;20059;-65
2022/08/10 08:43:27;;;;;;;5.88;3.28;;;;;;;27.03;44.34;102368.28;3584345;40;20072;-65
2022/08/10 08:46:30;;;;;;;7.35;3.08;;;;;;;27.18;42.15;102371.31;3586656;40;20088;-65
2022/08/10 08:49:29;;;;;;;6.22;3.97;;;;;;;27.36;41.34;102370.31;3585733;40;20335;-65
2022/08/10 08:52:41;;;;;;;4.18;3.78;;;;;;;27.33;41.68;102366.00;3586070;40;20076;-65
2022/08/10 08:55:32;;;;;;;5.45;3.75;;;;;;;27.33;41.48;102367.91;3584668;40;20052;-65
2022/08/10 08:59:03;;;;;;;4.15;3.42;;;;;;;27.60;41.87;102375.06;3587664;40;20121;-65
2022/08/10 09:02:19;;;;;;;6.20;4.05;;;;;;;27.79;40.94;102377.53;3578174;40;20379;-65
2022/08/10 09:05:06;;;;;;;4.07;3.50;;;;;;;27.95;40.18;102369.25;3576041;40;20052;-63
2022/08/10 09:08:15;;;;;;;5.53;4.00;;;;;;;28.23;40.51;102358.72;3585085;40;20054;-64
2022/08/10 09:10:59;;;;;;;3.95;3.05;;;;;;;28.53;39.70;102359.03;3588798;40;20267;-65
2022/08/10 09:14:15;;;;;;;5.07;3.38;;;;;;;28.68;39.00;102361.97;3585107;40;20060;-65
2022/08/10 09:16:56;;;;;;;4.85;3.60;;;;;;;28.98;37.80;102351.13;3586787;40;20060;-65
2022/08/10 09:19:45;;;;;;;4.40;3.67;;;;;;;29.12;39.33;102359.59;3585718;40;20052;-65
2022/08/10 09:22:30;;;;;;;5.03;3.70;;;;;;;29.19;38.11;102342.25;3587375;40;20751;-65
2022/08/10 09:25:17;;;;;;;5.20;3.95;;;;;;;29.39;38.56;102355.44;3586289;40;20055;-66
2022/08/10 09:28:08;;;;;;;7.63;4.13;;;;;;;29.38;38.24;102345.41;3586168;40;20044;-66
2022/08/10 09:30:55;;;;;;;3.90;2.83;;;;;;;29.59;37.65;102343.88;3585146;40;20044;-68
2022/08/10 09:33:57;;;;;;;3.90;3.03;;;;;;;29.73;36.10;102334.81;3587032;40;20044;-66
2022/08/10 09:37:19;;;;;;;4.32;2.78;;;;;;;29.93;36.83;102337.94;3585352;40;20299;-65
2022/08/10 09:40:01;;;;;;;4.80;2.60;;;;;;;29.79;35.77;102333.22;3585996;40;20063;-65
2022/08/10 09:43:09;;;;;;;6.32;2.55;;;;;;;29.82;37.09;102339.25;3587841;40;20280;-65
2022/08/10 09:46:18;;;;;;;5.63;2.80;;;;;;;29.95;35.41;102335.84;3584763;40;20060;-65
2022/08/10 09:49:31;;;;;;;3.45;3.05;;;;;;;30.13;36.08;102326.31;3587524;40;20087;-65
2022/08/10 09:52:27;;;;;;;4.70;2.67;;;;;;;30.23;35.20;102326.97;3586073;40;20059;-65
2022/08/10 09:55:34;;;;;;;4.60;2.75;;;;;;;30.21;35.11;102327.16;3586972;40;20117;-66
2022/08/10 09:58:24;;;;;;;4.65;3.38;;;;;;;30.54;36.96;102335.13;3584930;40;20055;-63
2022/08/10 10:01:21;;;;;;;6.65;2.58;;;;;;;30.86;34.68;102319.16;3587419;40;20134;-64
2022/08/10 10:04:36;;;;;;;4.30;2.50;;;;;;;31.05;33.79;102320.47;3584593;40;20048;-64
2022/08/10 10:07:07;;;;;;;3.40;3.10;;;;;;;31.22;32.35;102319.22;3587096;40;20382;-64
2022/08/10 10:10:07;;;;;;;3.17;2.40;;;;;;;31.41;33.30;102323.31;3584757;40;20048;-64
2022/08/10 10:13:09;;;;;;;4.40;2.35;;;;;;;31.57;32.20;102313.88;3586669;40;20060;-64
2022/08/10 10:16:22;;;;;;;2.50;2.30;;;;;;;31.67;31.35;102308.81;3585679;40;20048;-64
2022/08/10 10:19:21;;;;;;;4.63;2.40;;;;;;;31.93;31.98;102299.03;3586485;40;20118;-64
2022/08/10 10:22:11;;;;;;;4.38;2.47;;;;;;;31.92;30.77;102300.97;3585952;40;20060;-66
2022/08/10 10:24:54;;;;;;;3.15;2.40;;;;;;;32.02;30.51;102293.13;3585991;40;20372;-65
2022/08/10 10:27:49;;;;;;;3.33;2.55;;;;;;;32.09;30.70;102285.69;3585224;40;20397;-65
2022/08/10 10:30:19;;;;;;;2.47;2.25;;;;;;;32.06;29.08;102293.56;3586490;40;20104;-65
2022/08/10 10:32:53;;;;;;;3.25;2.50;;;;;;;32.20;30.33;102291.78;3585807;40;20106;-65
2022/08/10 10:35:45;;;;;;;5.35;2.35;;;;;;;32.46;29.29;102289.19;3587948;40;20056;-65
2022/08/10 10:38:13;;;;;;;6.43;2.28;;;;;;;32.57;28.00;102296.97;3585186;40;20064;-65
2022/08/10 10:41:08;;;;;;;5.18;2.28;;;;;;;32.09;29.03;102282.91;3590387;39;20100;-65
2022/08/10 10:44:25;;;;;;;4.32;2.55;;;;;;;32.23;29.94;102277.47;3586771;40;20048;-66
2022/08/10 10:47:28;;;;;;;2.92;2.30;;;;;;;32.36;29.94;102267.25;3581530;40;20052;-66
2022/08/10 10:50:38;;;;;;;5.00;2.43;;;;;;;32.58;28.99;102273.63;3587013;40;20313;-66
2022/08/10 10:53:33;;;;;;;5.22;2.50;;;;;;;32.85;28.72;102265.38;3587186;39;20281;-66
2022/08/10 10:56:16;;;;;;;4.22;2.72;;;;;;;32.94;27.33;102264.16;3586446;40;20056;-67
2022/08/10 10:59:25;;;;;;;2.90;2.42;;;;;;;33.00;27.08;102268.06;3587483;40;20053;-66
2022/08/10 11:02:42;;;;;;;5.00;2.55;;;;;;;33.02;28.44;102254.78;3578797;40;20056;-66
2022/08/10 11:05:15;;;;;;;3.17;2.50;;;;;;;33.24;27.48;102252.72;3576965;40;20079;-66
2022/08/10 11:08:11;;;;;;;3.85;2.55;;;;;;;33.30;26.66;102251.84;3588051;40;20080;-66
2022/08/10 11:10:47;;;;;;;2.75;2.53;;;;;;;33.33;25.69;102217.09;3588745;40;20255;-65
2022/08/10 11:13:33;;;;;;;2.55;2.33;;;;;;;33.62;25.67;102243.75;3586107;40;20064;-66
2022/08/10 11:16:29;;;;;;;4.90;2.50;;;;;;;33.78;26.64;102253.63;3586318;40;20302;-66
2022/08/10 11:19:39;;;;;;;3.13;2.50;;;;;;;33.79;26.90;102242.28;3587123;40;20282;-65
2022/08/10 11:22:32;;;;;;;2.60;2.40;;;;;;;34.01;26.35;102244.84;3585377;40;20406;-65
2022/08/10 11:25:29;;;;;;;2.85;2.45;;;;;;;34.26;24.80;102245.03;3586967;40;20056;-66
2022/08/10 11:28:09;;;;;;;3.95;2.40;;;;;;;34.16;24.59;102242.72;3586444;40;20048;-66
2022/08/10 11:30:56;;;;;;;9.10;2.80;;;;;;;34.15;24.79;102244.59;3588343;40;20096;-66
2022/08/10 11:33:35;;;;;;;3.47;2.47;;;;;;;34.20;25.36;102235.59;3584812;40;20064;-66
2022/08/10 11:36:17;;;;;;;5.15;2.58;;;;;;;34.47;24.26;102241.09;3586666;40;20052;-66
2022/08/10 11:39:09;;;;;;;5.00;2.95;;;;;;;34.64;24.73;102231.22;3586926;40;20125;-65
2022/08/10 11:41:44;;;;;;;3.70;2.78;;;;;;;34.81;24.64;102238.00;3587010;40;20052;-66
2022/08/10 11:44:39;;;;;;;6.15;2.80;;;;;;;35.10;23.84;102241.31;3585708;40;20060;-66
2022/08/10 11:47:12;;;;;;;3.17;2.33;;;;;;;35.26;24.51;102234.31;3585018;40;20121;-66
2022/08/10 11:50:19;;;;;;;3.33;2.30;;;;;;;35.16;25.17;102222.78;3585513;40;20104;-66
2022/08/10 11:53:08;;;;;;;7.88;2.60;;;;;;;35.03;23.93;102212.53;3586644;40;20129;-65
2022/08/10 11:55:35;;;;;;;3.05;2.20;;;;;;;35.04;24.73;102220.69;3586466;40;20744;-66
2022/08/10 12:01:01;;;;;;;4.03;2.30;;;;;;;35.27;23.99;102219.25;3585858;40;20063;-66
2022/08/10 12:03:32;;;;;;;2.72;1.95;;;;;;;35.51;24.02;102215.63;3586048;40;20052;-65
2022/08/10 12:06:03;;;;;;;5.50;2.42;;;;;;;35.65;23.95;102222.03;3587085;40;20405;-66
2022/08/10 12:08:31;;;;;;;3.05;2.20;;;;;;;35.58;24.06;102210.88;3585926;40;20044;-66
2022/08/10 12:10:58;;;;;;;4.95;2.40;;;;;;;35.69;22.99;102195.28;3585917;40;20052;-66
2022/08/10 12:13:47;;;;;;;5.55;2.55;;;;;;;35.79;23.02;102206.81;3585945;40;20047;-66
2022/08/10 12:16:22;;;;;;;2.45;2.13;;;;;;;35.74;23.96;102201.03;3585984;40;20067;-65
2022/08/10 12:19:22;;;;;;;4.13;2.70;;;;;;;35.81;24.34;102198.19;3587521;40;20052;-66
2022/08/10 12:22:09;;;;;;;3.80;2.40;;;;;;;35.76;22.89;102198.03;3591257;40;20115;-66